الصفحة الرئيسية
METAR-TAF:

METAR-TAF

مطار :

مطار سير سيووساغور رامغولام الدولي

موريشيوس, موريشيوس

دائرة عرض: 20-26S, خط طول: 057-40E, ارتفاع: 55 متر

مراقبة الطقس الحالي

تاريخ ووقت الإصدار 23 دقيقة قبل الساعة 18:00UTC
ريح 2 عقدة من الشمال/الشمال الشرقي
درجة الحرارة 25°درجة مئوية
الرطوبة 94%
ضغط 1010 hPa
الرؤية 10 كم أو أكثر
غيوم قليلة على ارتفاع 1700 قدم
غيوم متفرقة على ارتفاع 5000 قدم

METAR: FIMP 011800Z 02002KT 9999 FEW017 SCT050 25/24 Q1010

زمن: 22:23 (18:23 UTC)

توقعات

تاريخ ووقت الإصدار 53 دقيقة قبل الساعة 17:30UTC
التوقعات صالحة من01 الساعة 18 UTC إلى 03 الساعة 00 UTC
ريح 3 عقدةمن اتجاهات متغيرة
الرؤية 10 كم أو أكثر
غيوم متفرقة على ارتفاع 1500 قدم
مؤقت
من 01 الساعة 18 UTC إلى 02 الساعة 04 UTC
الرؤية: 7000 متر
غيوم مفككة على ارتفاع 1400 قدم
زخات من الأمطار الخفيفة
أصبح
من 02 الساعة 04 UTC إلى 02 الساعة 06 UTC
ريح 7 عقدة من الجنوب

TAF: FIMP 011730Z 0118/0300 VRB03KT 9999 SCT015 TEMPO 0118/0204 7000 -SHRA BKN014 BECMG 0204/0206 18007KT

أرصاد الطقس والتوقعات من أكثر من 4000 مطار (تقارير الطقس للمطار METAR والتنبؤ بالطقس بالمطارTAF).

المحطات المتاحة هي النقط الصفراء والحمراء على الخريطة.

حرك المؤشر فوق النقطة لمعرفة اسم المحطة.

ثم انقر لمعرفة أرصاد وتوقعات الطقس.

لتغيير الخارطة: اضغط على الأزرار الخضراء مع رمز الصليب الأسود للتكبير. على الزر الأخضر مع شرطة للتصغير، أو على الأسهم الخضراء للخرائط المجاورة.


METAR-TAF: